»·PEaware :: INDIE33 KMRY-KSMF

INDIE33 :: KMRY-KSMF

FLIGHT INFORMATION

Flight Status: Arrived
Operator: Unknown
More flights by this operator :: More flights under this callsign
Pilot: Indie I. (23354)
Aircraft: BEECH AIRCRAFT T-6A TEXAN
(TEX2)
More flights by this aircraft type
Origin: KMRY Monterey Peninsula
United States
Destination: KSMF Sacramento Intl
United States
More flights between these airports :: More routes between these airports
Route: +MRY5 SNS V111 MOD LIN V23 SAC
File this flight plan on PilotEdge
Remarks: Request ILS RWY 34L
Altitude:
(Current/Filed)
13,000ft
Speed:
(Current/Filed)
250kts
Departed: 09-Sep-19 07:01 AM
Arrived: 09-Sep-19 07:45 AM
Distance/Time
Traveled:
127nm/0:44
Distance/Time
To Go:
Arrived

Flight Plot

Page will automatically refresh every two minutes.

Flight plan parsing failed; only flown route is shown


Map Options




Map Legend


Flown Route
Filed Route
Departure Airport
Arrival Airport
Navaid (VOR, NDB)
Fix

Horizontal Profiles

Position Reports

Time Latitude Longitude Heading Altitude Ground
Speed
09-Sep-19 06:40 36.587696 -121.851751 202 262ft 0kts
09-Sep-19 06:41 36.587690 -121.851754 202 262ft 0kts
09-Sep-19 06:42 36.587685 -121.851757 202 262ft 0kts
09-Sep-19 06:43 36.587680 -121.851760 202 262ft 0kts
09-Sep-19 06:44 36.587674 -121.851763 201 262ft 0kts
09-Sep-19 06:45 36.587669 -121.851765 201 262ft 0kts
09-Sep-19 06:46 36.587475 -121.851859 199 262ft 3kts
09-Sep-19 06:47 36.588633 -121.854513 343 262ft 0kts
09-Sep-19 06:48 36.588637 -121.854514 343 262ft 0kts
09-Sep-19 06:51 36.588650 -121.854519 343 262ft 0kts
09-Sep-19 06:52 36.588654 -121.854520 342 262ft 0kts
09-Sep-19 06:53 36.588658 -121.854522 342 262ft 0kts
09-Sep-19 06:54 36.588662 -121.854524 342 262ft 0kts
09-Sep-19 06:55 36.588666 -121.854525 342 262ft 0kts
09-Sep-19 06:56 36.589095 -121.854076 23 262ft 3kts
09-Sep-19 06:57 36.590479 -121.856848 7 262ft 0kts
09-Sep-19 06:58 36.590486 -121.856847 7 262ft 0kts
09-Sep-19 06:59 36.590492 -121.856846 6 262ft 0kts
09-Sep-19 07:00 36.589859 -121.852877 112 262ft 85kts
09-Sep-19 07:01 36.586785 -121.798177 71 2342ft 177kts
09-Sep-19 07:02 36.607320 -121.743668 28 5776ft 181kts
09-Sep-19 07:04 36.657591 -121.732569 8 9626ft 175kts
09-Sep-19 07:05 36.683009 -121.676682 96 11293ft 257kts
09-Sep-19 07:06 36.659575 -121.584980 103 11107ft 304kts
09-Sep-19 07:07 36.680055 -121.495012 27 11171ft 297kts
09-Sep-19 07:08 36.762397 -121.498351 351 10929ft 306kts
09-Sep-19 07:09 36.842926 -121.484875 17 11850ft 272kts
09-Sep-19 07:10 36.917340 -121.452917 10 12559ft 286kts
09-Sep-19 07:11 36.988338 -121.406667 31 12963ft 302kts
09-Sep-19 07:12 37.060221 -121.351412 31 13041ft 299kts
09-Sep-19 07:13 37.132732 -121.296878 31 13019ft 302kts
09-Sep-19 07:14 37.201765 -121.241136 33 13516ft 303kts
09-Sep-19 07:15 37.272992 -121.183555 32 13331ft 310kts
09-Sep-19 07:16 37.349584 -121.137606 19 13313ft 308kts
09-Sep-19 07:17 37.429682 -121.099259 25 12990ft 310kts
09-Sep-19 07:18 37.499762 -121.046301 32 13187ft 292kts
09-Sep-19 07:19 37.571262 -120.997720 26 13026ft 292kts
09-Sep-19 07:20 37.641450 -120.950441 10 13275ft 291kts
09-Sep-19 07:20 37.708807 -120.969387 351 13218ft 294kts
09-Sep-19 07:22 37.805413 -120.981485 356 13120ft 305kts
09-Sep-19 07:23 37.890312 -120.984904 359 12946ft 308kts
09-Sep-19 07:23 37.960464 -120.992399 353 13213ft 299kts
09-Sep-19 07:25 38.055645 -121.017110 330 13135ft 302kts
09-Sep-19 07:26 38.120925 -121.072443 301 13038ft 306kts
09-Sep-19 07:26 38.165766 -121.137765 315 10395ft 289kts
09-Sep-19 07:27 38.211920 -121.209233 302 7943ft 226kts
09-Sep-19 07:29 38.261290 -121.286326 327 8134ft 271kts
09-Sep-19 07:29 38.323149 -121.304313 353 6372ft 265kts
09-Sep-19 07:30 38.392873 -121.316466 352 4175ft 234kts
09-Sep-19 07:31 38.457632 -121.326169 353 3999ft 233kts
09-Sep-19 07:32 38.526430 -121.337416 352 4101ft 261kts
09-Sep-19 07:33 38.598120 -121.349803 352 4035ft 250kts
09-Sep-19 07:34 38.665902 -121.361347 352 3984ft 247kts
09-Sep-19 07:35 38.733530 -121.371598 353 4061ft 245kts
09-Sep-19 07:36 38.800997 -121.395987 344 3019ft 250kts
09-Sep-19 07:37 38.867261 -121.421441 338 2909ft 248kts
09-Sep-19 07:38 38.888864 -121.497048 273 2025ft 223kts
09-Sep-19 07:39 38.870973 -121.572398 214 2015ft 255kts
09-Sep-19 07:40 38.817568 -121.578876 185 1943ft 149kts
09-Sep-19 07:41 38.783011 -121.578835 183 1524ft 126kts
09-Sep-19 07:42 38.748751 -121.579420 181 845ft 123kts
09-Sep-19 07:43 38.715338 -121.580012 180 116ft 109kts
09-Sep-19 07:44 38.698071 -121.580243 181 33ft 17kts

Navigation Log

Ident Type
Flight plan parsing failed, navigation log unavailable